Briefing drone pour Nevers (LFQG)

Rechercher une autre localisation

Conditions de vol :


Nous sommes le : Jeudi 11 août 2022
Il est 20:19 UTC (22:19 LT)

Lever de soleil : 04:13 UTC (06:13 LT)
Coucher de soleil : 19:31 UTC (21:31 LT)

Météo

L'essentiel des conditions de vol

VIGILANCE MÉTÉO FRANCE - Nièvre (58)
Pas de vigilances particulieres
METAR de LFQG
LFQG 111800Z AUTO 35005KT CAVOK 31/08 Q1014

Date d'émission: 11/08/2022
Heure d'émission: 18:00 UTC
Vent: 350° pour 5 KT (9 km/h)
Visibilité horizontale: > 10 km
Plafond : Plafond et visibilité OK (CAVOK)
Température: 31 °C
Point de rosée: 8 °C
Humidité: 24%
Pression (QNH): 1014 hPa
Prévision 24h pour Nevers
Vent : 41° pour 2 KT (9 km/h)
Temperature Maxi: 35 °C
Temperature Min: 35 °C
Humidité : 14%
Condition : Ciel dégagé



Warning: count(): Parameter must be an array or an object that implements Countable in /homepages/6/d509196549/htdocs/droneoxygene/briefing.php on line 743
WEBCAM POUR NEVERS

Réglementation

Voler en sécurité

CARTES AERONAUTIQUE 1/500.000
CARTE AZBA (Reseau basse altitude)
CARTES VAC (LFQG)
SUP AIP




Chargement des AIP...
NOTAM (NEVERS + Terrain à proximité / FIR )




Chargement des NOTAMS...
CONTACT PREFECTURE 58


Avertissement : Les données mises à disposition sont indicatives. Oxygène Drone ne pourra être tenu responsable de dégâts causés aux biens et aux personnes.